Aérodrome :
LOGIN :

S'inscrire | Disclaimer

   EN    FR    IT 

 










Légende :    VFR   VFR Marginal   IFR   IFR Intensif   IFR Très Intensif
Visi : 
Plafond : 
>= 8 km
>= 3000ft
5 à 8 km
1000 à 3000 ft
1500m à 5 km
500 à 1000 ft
800 à 1500m
200 à 500 ft
< 800m
< 200 ft
Symboles :   Orages  Brouillard  Fortes neiges  Fortes précipitations  Vent > 20 kt
SIGMETs :   Divers  Orages  Givrage  Turbulence  Onde Orograph.  Cendres Volcan.






- Altitude de l'aérodrome : 187 ft


ETNW - Wunstorf AB

DERNIER METAR :
  • 060520Z 25017G27KT 9999 FEW007 BKN016 06/02 Q1010 WHT WHT BECMG GRN

METARs EXPIRÉS :
  • 060420Z 25018KT 9999 FEW010 BKN017 BKN040 05/02 Q1010 WHT
  • 060320Z 25019KT 9999 SCT017 BKN080 05/01 Q1010 BLU

TAF TAF ETNW
Valide du 06 à 06h jusqu'au 07 à 06h UTC


060525Z 0606/0706 26015G25KT 8000 NSW SCT010 BKN020
BECMG 0606/0607 21015G25KT 6000 -RADZ BKN010
TEMPO 0606/0612 22020G30KT 3000 RADZ BKN006
TEMPO 0612/0618 23020G30KT 7000 NSW SCT010 BKN015
TEMPO 0618/0706 24018G28KT 3000 RADZ BKN005 BY ETGL



MET'MAP, la Météo Aéronautique d'un coup d'oeil ! - Copyright ORBIFLY Décembre 2007 - Disclaimer

ORBIFLY MET'MAP TEAM :

Programmation & Développement : Alexandra Zaïnal
Sur une idée originale de : Baudouin d'Aumeries
Assistance à la programmation : Marc-Olivier Méhu
Soutien technique & logistique : Manuel Goepfert

Contact : metmap@orbifly.com




SOURCES & CREDITS :

   NOAA